sensor_id;sensor_type;location;lat;lon;timestamp;temperature;humidity
20481;DHT22;10399;50.754;3.366;2023-10-13T00:02:02;19.20;99.90
20481;DHT22;10399;50.754;3.366;2023-10-13T00:04:35;19.10;99.90
20481;DHT22;10399;50.754;3.366;2023-10-13T00:07:10;19.20;99.90
20481;DHT22;10399;50.754;3.366;2023-10-13T00:09:38;19.30;99.90
20481;DHT22;10399;50.754;3.366;2023-10-13T00:12:06;19.30;99.90
20481;DHT22;10399;50.754;3.366;2023-10-13T00:14:40;19.30;99.90
20481;DHT22;10399;50.754;3.366;2023-10-13T00:17:08;19.30;99.90
20481;DHT22;10399;50.754;3.366;2023-10-13T00:19:38;19.20;99.90
20481;DHT22;10399;50.754;3.366;2023-10-13T00:22:13;19.20;99.90
20481;DHT22;10399;50.754;3.366;2023-10-13T00:24:43;19.20;99.90
20481;DHT22;10399;50.754;3.366;2023-10-13T00:27:15;19.20;99.90
20481;DHT22;10399;50.754;3.366;2023-10-13T00:30:01;19.30;99.90
20481;DHT22;10399;50.754;3.366;2023-10-13T00:32:45;19.20;99.90
20481;DHT22;10399;50.754;3.366;2023-10-13T00:35:14;19.30;99.90
20481;DHT22;10399;50.754;3.366;2023-10-13T00:37:56;19.30;99.90
20481;DHT22;10399;50.754;3.366;2023-10-13T00:40:25;19.20;99.90
20481;DHT22;10399;50.754;3.366;2023-10-13T00:42:59;19.20;99.90
20481;DHT22;10399;50.754;3.366;2023-10-13T00:45:56;19.30;99.90
20481;DHT22;10399;50.754;3.366;2023-10-13T00:48:46;19.30;99.90
20481;DHT22;10399;50.754;3.366;2023-10-13T00:51:19;19.00;99.90
20481;DHT22;10399;50.754;3.366;2023-10-13T00:54:02;19.00;99.90
20481;DHT22;10399;50.754;3.366;2023-10-13T00:56:29;19.10;99.90
20481;DHT22;10399;50.754;3.366;2023-10-13T00:58:59;19.10;99.90
20481;DHT22;10399;50.754;3.366;2023-10-13T01:01:29;19.10;99.90
20481;DHT22;10399;50.754;3.366;2023-10-13T01:04:00;19.10;99.90
20481;DHT22;10399;50.754;3.366;2023-10-13T01:06:30;19.00;99.90
20481;DHT22;10399;50.754;3.366;2023-10-13T01:09:03;19.10;99.90
20481;DHT22;10399;50.754;3.366;2023-10-13T01:11:42;19.20;99.90
20481;DHT22;10399;50.754;3.366;2023-10-13T01:14:11;19.30;99.90
20481;DHT22;10399;50.754;3.366;2023-10-13T01:16:38;19.30;99.90
20481;DHT22;10399;50.754;3.366;2023-10-13T01:19:07;19.20;99.90
20481;DHT22;10399;50.754;3.366;2023-10-13T01:21:34;19.20;99.90
20481;DHT22;10399;50.754;3.366;2023-10-13T01:24:01;19.30;99.90
20481;DHT22;10399;50.754;3.366;2023-10-13T01:26:28;19.30;99.90
20481;DHT22;10399;50.754;3.366;2023-10-13T01:28:58;19.20;99.90
20481;DHT22;10399;50.754;3.366;2023-10-13T01:31:25;19.30;99.90
20481;DHT22;10399;50.754;3.366;2023-10-13T01:34:04;19.50;99.90
20481;DHT22;10399;50.754;3.366;2023-10-13T01:36:31;19.40;99.90
20481;DHT22;10399;50.754;3.366;2023-10-13T01:39:02;19.40;99.90
20481;DHT22;10399;50.754;3.366;2023-10-13T01:41:29;19.40;99.90
20481;DHT22;10399;50.754;3.366;2023-10-13T01:43:58;19.50;99.90
20481;DHT22;10399;50.754;3.366;2023-10-13T01:46:25;19.50;99.90
20481;DHT22;10399;50.754;3.366;2023-10-13T01:48:55;19.50;99.90
20481;DHT22;10399;50.754;3.366;2023-10-13T01:51:23;19.60;99.90
20481;DHT22;10399;50.754;3.366;2023-10-13T01:53:50;19.40;99.90
20481;DHT22;10399;50.754;3.366;2023-10-13T01:56:24;19.50;99.90
20481;DHT22;10399;50.754;3.366;2023-10-13T01:58:51;19.40;99.90
20481;DHT22;10399;50.754;3.366;2023-10-13T02:01:20;19.40;99.90
20481;DHT22;10399;50.754;3.366;2023-10-13T02:03:55;19.50;99.90
20481;DHT22;10399;50.754;3.366;2023-10-13T02:06:37;19.50;99.90
20481;DHT22;10399;50.754;3.366;2023-10-13T02:09:06;19.60;99.90
20481;DHT22;10399;50.754;3.366;2023-10-13T02:11:52;19.60;99.90
20481;DHT22;10399;50.754;3.366;2023-10-13T02:14:21;19.60;99.90
20481;DHT22;10399;50.754;3.366;2023-10-13T02:16:49;19.60;99.90
20481;DHT22;10399;50.754;3.366;2023-10-13T02:19:17;19.60;99.90
20481;DHT22;10399;50.754;3.366;2023-10-13T02:21:46;19.60;99.90
20481;DHT22;10399;50.754;3.366;2023-10-13T02:24:25;19.50;99.90
20481;DHT22;10399;50.754;3.366;2023-10-13T02:26:56;19.50;99.90
20481;DHT22;10399;50.754;3.366;2023-10-13T02:29:30;19.50;99.90
20481;DHT22;10399;50.754;3.366;2023-10-13T02:31:57;19.60;99.90
20481;DHT22;10399;50.754;3.366;2023-10-13T02:34:24;19.70;99.90
20481;DHT22;10399;50.754;3.366;2023-10-13T02:36:51;19.60;99.90
20481;DHT22;10399;50.754;3.366;2023-10-13T02:39:21;19.60;99.90
20481;DHT22;10399;50.754;3.366;2023-10-13T02:41:52;19.60;99.90
20481;DHT22;10399;50.754;3.366;2023-10-13T02:44:22;19.60;99.90
20481;DHT22;10399;50.754;3.366;2023-10-13T02:46:58;19.60;99.90
20481;DHT22;10399;50.754;3.366;2023-10-13T02:49:27;19.60;99.90
20481;DHT22;10399;50.754;3.366;2023-10-13T02:51:58;19.70;99.90
20481;DHT22;10399;50.754;3.366;2023-10-13T02:54:30;19.60;99.90
20481;DHT22;10399;50.754;3.366;2023-10-13T02:56:58;19.60;99.90
20481;DHT22;10399;50.754;3.366;2023-10-13T02:59:31;19.50;99.90
20481;DHT22;10399;50.754;3.366;2023-10-13T03:02:02;19.60;99.90
20481;DHT22;10399;50.754;3.366;2023-10-13T03:04:46;19.50;99.90
20481;DHT22;10399;50.754;3.366;2023-10-13T03:07:14;19.50;99.90
20481;DHT22;10399;50.754;3.366;2023-10-13T03:09:50;19.40;99.90
20481;DHT22;10399;50.754;3.366;2023-10-13T03:12:19;19.50;99.90
20481;DHT22;10399;50.754;3.366;2023-10-13T03:14:46;19.50;99.90
20481;DHT22;10399;50.754;3.366;2023-10-13T03:17:16;19.60;99.90
20481;DHT22;10399;50.754;3.366;2023-10-13T03:19:52;19.60;99.90
20481;DHT22;10399;50.754;3.366;2023-10-13T03:22:21;19.60;99.90
20481;DHT22;10399;50.754;3.366;2023-10-13T03:24:58;19.60;99.90
20481;DHT22;10399;50.754;3.366;2023-10-13T03:27:33;19.50;99.90
20481;DHT22;10399;50.754;3.366;2023-10-13T03:30:15;19.40;99.90
20481;DHT22;10399;50.754;3.366;2023-10-13T03:32:43;19.40;99.90
20481;DHT22;10399;50.754;3.366;2023-10-13T03:35:12;19.50;99.90
20481;DHT22;10399;50.754;3.366;2023-10-13T03:37:51;19.50;99.90
20481;DHT22;10399;50.754;3.366;2023-10-13T03:40:20;19.50;99.90
20481;DHT22;10399;50.754;3.366;2023-10-13T03:42:48;19.50;99.90
20481;DHT22;10399;50.754;3.366;2023-10-13T03:45:26;19.40;99.90
20481;DHT22;10399;50.754;3.366;2023-10-13T03:47:53;19.50;99.90
20481;DHT22;10399;50.754;3.366;2023-10-13T03:50:20;19.60;99.90
20481;DHT22;10399;50.754;3.366;2023-10-13T03:52:56;19.60;99.90
20481;DHT22;10399;50.754;3.366;2023-10-13T03:55:26;19.60;99.90
20481;DHT22;10399;50.754;3.366;2023-10-13T03:57:54;19.30;99.90
20481;DHT22;10399;50.754;3.366;2023-10-13T04:00:22;19.30;99.90
20481;DHT22;10399;50.754;3.366;2023-10-13T04:02:55;19.30;99.90
20481;DHT22;10399;50.754;3.366;2023-10-13T04:05:43;19.40;99.90
20481;DHT22;10399;50.754;3.366;2023-10-13T04:08:28;19.50;99.90
20481;DHT22;10399;50.754;3.366;2023-10-13T04:10:56;19.30;99.90
20481;DHT22;10399;50.754;3.366;2023-10-13T04:13:23;19.40;99.90
20481;DHT22;10399;50.754;3.366;2023-10-13T04:16:09;19.30;99.90
20481;DHT22;10399;50.754;3.366;2023-10-13T04:18:51;19.40;99.90
20481;DHT22;10399;50.754;3.366;2023-10-13T04:21:24;19.50;99.90
20481;DHT22;10399;50.754;3.366;2023-10-13T04:24:22;19.40;99.90
20481;DHT22;10399;50.754;3.366;2023-10-13T04:27:02;19.40;99.90
20481;DHT22;10399;50.754;3.366;2023-10-13T04:29:41;19.30;99.90
20481;DHT22;10399;50.754;3.366;2023-10-13T04:32:18;19.30;99.90
20481;DHT22;10399;50.754;3.366;2023-10-13T04:35:05;19.30;99.90
20481;DHT22;10399;50.754;3.366;2023-10-13T04:37:39;19.40;99.90
20481;DHT22;10399;50.754;3.366;2023-10-13T04:40:27;19.30;99.90
20481;DHT22;10399;50.754;3.366;2023-10-13T04:43:02;19.40;99.90
20481;DHT22;10399;50.754;3.366;2023-10-13T04:45:52;19.30;99.90
20481;DHT22;10399;50.754;3.366;2023-10-13T04:48:22;19.30;99.90
20481;DHT22;10399;50.754;3.366;2023-10-13T04:50:49;19.30;99.90
20481;DHT22;10399;50.754;3.366;2023-10-13T04:53:39;19.30;99.90
20481;DHT22;10399;50.754;3.366;2023-10-13T04:56:24;19.30;99.90
20481;DHT22;10399;50.754;3.366;2023-10-13T04:59:14;19.40;99.90
20481;DHT22;10399;50.754;3.366;2023-10-13T05:01:45;19.30;99.90
20481;DHT22;10399;50.754;3.366;2023-10-13T05:04:24;19.40;99.90
20481;DHT22;10399;50.754;3.366;2023-10-13T05:07:06;19.40;99.90
20481;DHT22;10399;50.754;3.366;2023-10-13T05:09:51;19.40;99.90
20481;DHT22;10399;50.754;3.366;2023-10-13T05:12:37;19.40;99.90
20481;DHT22;10399;50.754;3.366;2023-10-13T05:15:23;19.40;99.90
20481;DHT22;10399;50.754;3.366;2023-10-13T05:18:08;19.40;99.90
20481;DHT22;10399;50.754;3.366;2023-10-13T05:20:57;19.50;99.90
20481;DHT22;10399;50.754;3.366;2023-10-13T05:23:42;19.50;99.90
20481;DHT22;10399;50.754;3.366;2023-10-13T05:26:28;19.50;99.90
20481;DHT22;10399;50.754;3.366;2023-10-13T05:29:13;19.40;99.90
20481;DHT22;10399;50.754;3.366;2023-10-13T05:32:00;19.40;99.90
20481;DHT22;10399;50.754;3.366;2023-10-13T05:34:45;19.40;99.90
20481;DHT22;10399;50.754;3.366;2023-10-13T05:37:31;19.50;99.90
20481;DHT22;10399;50.754;3.366;2023-10-13T05:40:17;19.50;99.90
20481;DHT22;10399;50.754;3.366;2023-10-13T05:43:02;19.50;99.90
20481;DHT22;10399;50.754;3.366;2023-10-13T05:45:48;19.60;99.90
20481;DHT22;10399;50.754;3.366;2023-10-13T05:48:34;19.50;99.90
20481;DHT22;10399;50.754;3.366;2023-10-13T05:51:19;19.60;99.90
20481;DHT22;10399;50.754;3.366;2023-10-13T05:54:03;19.70;99.90
20481;DHT22;10399;50.754;3.366;2023-10-13T05:56:56;19.70;99.90
20481;DHT22;10399;50.754;3.366;2023-10-13T06:00:02;19.60;99.90
20481;DHT22;10399;50.754;3.366;2023-10-13T06:02:47;19.60;99.90
20481;DHT22;10399;50.754;3.366;2023-10-13T06:05:34;19.70;99.90
20481;DHT22;10399;50.754;3.366;2023-10-13T06:08:19;19.70;99.90
20481;DHT22;10399;50.754;3.366;2023-10-13T06:11:05;19.60;99.90
20481;DHT22;10399;50.754;3.366;2023-10-13T06:13:50;19.60;99.90
20481;DHT22;10399;50.754;3.366;2023-10-13T06:16:36;19.80;99.90
20481;DHT22;10399;50.754;3.366;2023-10-13T06:19:21;19.90;99.90
20481;DHT22;10399;50.754;3.366;2023-10-13T06:22:07;19.90;99.90
20481;DHT22;10399;50.754;3.366;2023-10-13T06:24:52;19.90;99.90
20481;DHT22;10399;50.754;3.366;2023-10-13T06:27:38;20.00;99.90
20481;DHT22;10399;50.754;3.366;2023-10-13T06:30:23;20.00;99.90
20481;DHT22;10399;50.754;3.366;2023-10-13T06:32:50;20.10;99.90
20481;DHT22;10399;50.754;3.366;2023-10-13T06:35:17;20.00;99.90
20481;DHT22;10399;50.754;3.366;2023-10-13T06:37:51;20.00;99.90
20481;DHT22;10399;50.754;3.366;2023-10-13T06:40:18;20.10;99.90
20481;DHT22;10399;50.754;3.366;2023-10-13T06:42:52;20.10;99.90
20481;DHT22;10399;50.754;3.366;2023-10-13T06:45:39;20.00;99.90
20481;DHT22;10399;50.754;3.366;2023-10-13T06:48:06;20.10;99.90
20481;DHT22;10399;50.754;3.366;2023-10-13T06:50:37;20.10;99.90
20481;DHT22;10399;50.754;3.366;2023-10-13T06:53:08;20.10;99.90
20481;DHT22;10399;50.754;3.366;2023-10-13T06:55:39;20.20;99.90
20481;DHT22;10399;50.754;3.366;2023-10-13T06:58:07;20.20;99.90
20481;DHT22;10399;50.754;3.366;2023-10-13T07:00:40;20.20;99.90
20481;DHT22;10399;50.754;3.366;2023-10-13T07:03:08;20.30;99.90
20481;DHT22;10399;50.754;3.366;2023-10-13T07:05:53;20.30;99.90
20481;DHT22;10399;50.754;3.366;2023-10-13T07:08:20;20.20;99.90
20481;DHT22;10399;50.754;3.366;2023-10-13T07:10:53;20.30;99.90
20481;DHT22;10399;50.754;3.366;2023-10-13T07:13:32;20.40;99.90
20481;DHT22;10399;50.754;3.366;2023-10-13T07:16:07;20.40;99.90
20481;DHT22;10399;50.754;3.366;2023-10-13T07:18:54;20.40;99.90
20481;DHT22;10399;50.754;3.366;2023-10-13T07:21:22;20.40;99.90
20481;DHT22;10399;50.754;3.366;2023-10-13T07:23:58;20.50;99.90
20481;DHT22;10399;50.754;3.366;2023-10-13T07:26:44;20.50;99.90
20481;DHT22;10399;50.754;3.366;2023-10-13T07:29:13;20.50;99.90
20481;DHT22;10399;50.754;3.366;2023-10-13T07:31:41;20.50;99.90
20481;DHT22;10399;50.754;3.366;2023-10-13T07:34:12;20.50;99.90
20481;DHT22;10399;50.754;3.366;2023-10-13T07:36:47;20.50;99.90
20481;DHT22;10399;50.754;3.366;2023-10-13T07:39:16;20.50;99.90
20481;DHT22;10399;50.754;3.366;2023-10-13T07:41:51;20.40;99.90
20481;DHT22;10399;50.754;3.366;2023-10-13T07:44:31;20.50;99.90
20481;DHT22;10399;50.754;3.366;2023-10-13T07:47:02;20.60;99.90
20481;DHT22;10399;50.754;3.366;2023-10-13T07:49:35;20.70;99.90
20481;DHT22;10399;50.754;3.366;2023-10-13T07:52:10;20.70;99.90
20481;DHT22;10399;50.754;3.366;2023-10-13T07:54:51;20.70;99.90
20481;DHT22;10399;50.754;3.366;2023-10-13T07:57:51;20.70;99.90
20481;DHT22;10399;50.754;3.366;2023-10-13T08:00:23;20.70;99.90
20481;DHT22;10399;50.754;3.366;2023-10-13T08:03:00;20.70;99.90
20481;DHT22;10399;50.754;3.366;2023-10-13T08:05:57;20.70;99.90
20481;DHT22;10399;50.754;3.366;2023-10-13T08:08:25;20.60;99.90
20481;DHT22;10399;50.754;3.366;2023-10-13T08:10:53;20.60;99.90
20481;DHT22;10399;50.754;3.366;2023-10-13T08:13:27;20.60;99.90
20481;DHT22;10399;50.754;3.366;2023-10-13T08:15:55;20.60;99.90
20481;DHT22;10399;50.754;3.366;2023-10-13T08:18:22;20.60;99.90
20481;DHT22;10399;50.754;3.366;2023-10-13T08:21:04;20.60;99.90
20481;DHT22;10399;50.754;3.366;2023-10-13T08:23:32;20.70;99.90
20481;DHT22;10399;50.754;3.366;2023-10-13T08:26:18;20.80;99.90
20481;DHT22;10399;50.754;3.366;2023-10-13T08:29:04;20.80;99.90
20481;DHT22;10399;50.754;3.366;2023-10-13T08:32:00;20.90;99.90
20481;DHT22;10399;50.754;3.366;2023-10-13T08:34:47;20.90;99.90
20481;DHT22;10399;50.754;3.366;2023-10-13T08:37:14;20.80;99.90
20481;DHT22;10399;50.754;3.366;2023-10-13T08:39:52;20.90;99.90
20481;DHT22;10399;50.754;3.366;2023-10-13T08:42:51;20.90;99.90
20481;DHT22;10399;50.754;3.366;2023-10-13T08:45:39;20.90;99.90
20481;DHT22;10399;50.754;3.366;2023-10-13T08:48:09;20.90;99.90
20481;DHT22;10399;50.754;3.366;2023-10-13T08:50:45;20.90;99.90
20481;DHT22;10399;50.754;3.366;2023-10-13T08:53:20;20.90;99.90
20481;DHT22;10399;50.754;3.366;2023-10-13T08:56:01;20.90;99.90
20481;DHT22;10399;50.754;3.366;2023-10-13T08:58:33;21.00;99.90
20481;DHT22;10399;50.754;3.366;2023-10-13T09:01:25;21.10;99.90
20481;DHT22;10399;50.754;3.366;2023-10-13T09:04:02;21.10;99.90
20481;DHT22;10399;50.754;3.366;2023-10-13T09:12:15;21.10;99.90
20481;DHT22;10399;50.754;3.366;2023-10-13T09:14:56;21.10;99.90
20481;DHT22;10399;50.754;3.366;2023-10-13T09:17:30;21.10;99.90
20481;DHT22;10399;50.754;3.366;2023-10-13T09:20:08;21.10;99.90
20481;DHT22;10399;50.754;3.366;2023-10-13T09:22:57;21.10;99.90
20481;DHT22;10399;50.754;3.366;2023-10-13T09:25:37;21.00;99.90
20481;DHT22;10399;50.754;3.366;2023-10-13T09:28:15;21.10;99.90
20481;DHT22;10399;50.754;3.366;2023-10-13T09:30:49;21.00;99.90
20481;DHT22;10399;50.754;3.366;2023-10-13T09:33:20;21.00;99.90
20481;DHT22;10399;50.754;3.366;2023-10-13T09:35:55;20.90;99.90
20481;DHT22;10399;50.754;3.366;2023-10-13T09:38:28;21.00;99.90
20481;DHT22;10399;50.754;3.366;2023-10-13T09:40:56;21.20;99.90
20481;DHT22;10399;50.754;3.366;2023-10-13T09:43:36;21.10;99.90
20481;DHT22;10399;50.754;3.366;2023-10-13T09:46:06;21.30;99.90
20481;DHT22;10399;50.754;3.366;2023-10-13T09:48:47;21.50;99.90
20481;DHT22;10399;50.754;3.366;2023-10-13T09:51:17;21.50;99.90
20481;DHT22;10399;50.754;3.366;2023-10-13T09:54:20;21.50;99.90
20481;DHT22;10399;50.754;3.366;2023-10-13T09:57:13;21.60;99.90
20481;DHT22;10399;50.754;3.366;2023-10-13T09:59:52;21.60;99.90
20481;DHT22;10399;50.754;3.366;2023-10-13T10:02:23;21.60;99.90
20481;DHT22;10399;50.754;3.366;2023-10-13T10:04:55;21.60;99.90
20481;DHT22;10399;50.754;3.366;2023-10-13T10:07:39;21.60;99.90
20481;DHT22;10399;50.754;3.366;2023-10-13T10:10:08;21.70;99.90
20481;DHT22;10399;50.754;3.366;2023-10-13T10:12:52;21.90;99.90
20481;DHT22;10399;50.754;3.366;2023-10-13T10:15:33;21.80;99.90
20481;DHT22;10399;50.754;3.366;2023-10-13T10:18:02;21.80;99.90
20481;DHT22;10399;50.754;3.366;2023-10-13T10:20:32;21.80;99.90
20481;DHT22;10399;50.754;3.366;2023-10-13T10:23:06;21.90;99.90
20481;DHT22;10399;50.754;3.366;2023-10-13T10:25:48;21.80;99.90
20481;DHT22;10399;50.754;3.366;2023-10-13T10:28:18;21.90;99.90
20481;DHT22;10399;50.754;3.366;2023-10-13T10:30:47;22.00;99.90
20481;DHT22;10399;50.754;3.366;2023-10-13T10:33:14;22.10;99.90
20481;DHT22;10399;50.754;3.366;2023-10-13T10:35:45;22.00;99.90
20481;DHT22;10399;50.754;3.366;2023-10-13T10:38:19;22.10;99.90
20481;DHT22;10399;50.754;3.366;2023-10-13T10:41:05;22.10;99.90
20481;DHT22;10399;50.754;3.366;2023-10-13T10:46:12;22.30;99.90
20481;DHT22;10399;50.754;3.366;2023-10-13T10:48:44;22.20;99.90
20481;DHT22;10399;50.754;3.366;2023-10-13T10:51:11;22.30;99.90
20481;DHT22;10399;50.754;3.366;2023-10-13T10:53:48;22.40;99.90
20481;DHT22;10399;50.754;3.366;2023-10-13T10:56:16;22.50;99.90
20481;DHT22;10399;50.754;3.366;2023-10-13T10:58:47;22.40;99.90
20481;DHT22;10399;50.754;3.366;2023-10-13T11:01:15;22.40;99.90
20481;DHT22;10399;50.754;3.366;2023-10-13T11:03:58;22.40;99.90
20481;DHT22;10399;50.754;3.366;2023-10-13T11:06:26;22.40;99.90
20481;DHT22;10399;50.754;3.366;2023-10-13T11:09:05;22.50;99.90
20481;DHT22;10399;50.754;3.366;2023-10-13T11:12:20;22.60;99.90
20481;DHT22;10399;50.754;3.366;2023-10-13T11:15:26;22.80;99.90
20481;DHT22;10399;50.754;3.366;2023-10-13T11:17:49;22.90;99.90
20481;DHT22;10399;50.754;3.366;2023-10-13T11:20:23;23.10;99.90
20481;DHT22;10399;50.754;3.366;2023-10-13T11:23:00;23.20;99.90
20481;DHT22;10399;50.754;3.366;2023-10-13T11:25:31;23.10;99.90
20481;DHT22;10399;50.754;3.366;2023-10-13T11:28:12;23.30;99.90
20481;DHT22;10399;50.754;3.366;2023-10-13T11:30:54;23.20;99.90
20481;DHT22;10399;50.754;3.366;2023-10-13T11:33:46;23.20;99.90
20481;DHT22;10399;50.754;3.366;2023-10-13T11:36:13;23.30;99.90
20481;DHT22;10399;50.754;3.366;2023-10-13T11:38:46;23.20;99.90
20481;DHT22;10399;50.754;3.366;2023-10-13T11:41:16;23.20;99.90
20481;DHT22;10399;50.754;3.366;2023-10-13T11:43:49;23.20;99.90
20481;DHT22;10399;50.754;3.366;2023-10-13T11:46:17;23.30;99.90
20481;DHT22;10399;50.754;3.366;2023-10-13T11:49:08;23.30;99.90
20481;DHT22;10399;50.754;3.366;2023-10-13T11:51:48;23.20;99.90
20481;DHT22;10399;50.754;3.366;2023-10-13T11:54:15;23.20;99.90
20481;DHT22;10399;50.754;3.366;2023-10-13T11:56:42;23.10;99.90
20481;DHT22;10399;50.754;3.366;2023-10-13T11:59:10;23.20;99.90
20481;DHT22;10399;50.754;3.366;2023-10-13T12:01:48;23.10;99.90
20481;DHT22;10399;50.754;3.366;2023-10-13T12:04:35;23.20;99.90
20481;DHT22;10399;50.754;3.366;2023-10-13T12:07:19;23.20;99.90
20481;DHT22;10399;50.754;3.366;2023-10-13T12:09:51;23.00;99.90
20481;DHT22;10399;50.754;3.366;2023-10-13T12:12:22;23.10;99.90
20481;DHT22;10399;50.754;3.366;2023-10-13T12:14:49;23.20;99.90
20481;DHT22;10399;50.754;3.366;2023-10-13T12:17:19;23.20;99.90
20481;DHT22;10399;50.754;3.366;2023-10-13T12:19:52;23.20;99.90
20481;DHT22;10399;50.754;3.366;2023-10-13T12:22:19;23.30;99.90
20481;DHT22;10399;50.754;3.366;2023-10-13T12:25:02;23.40;99.90
20481;DHT22;10399;50.754;3.366;2023-10-13T12:27:54;23.40;99.90
20481;DHT22;10399;50.754;3.366;2023-10-13T12:30:25;23.40;99.90
20481;DHT22;10399;50.754;3.366;2023-10-13T12:33:11;23.30;99.90
20481;DHT22;10399;50.754;3.366;2023-10-13T12:35:41;23.10;99.90
20481;DHT22;10399;50.754;3.366;2023-10-13T12:38:27;23.10;99.90
20481;DHT22;10399;50.754;3.366;2023-10-13T12:41:16;23.10;99.90
20481;DHT22;10399;50.754;3.366;2023-10-13T12:44:06;23.10;99.90
20481;DHT22;10399;50.754;3.366;2023-10-13T12:46:52;23.10;99.90
20481;DHT22;10399;50.754;3.366;2023-10-13T12:49:40;23.10;99.90
20481;DHT22;10399;50.754;3.366;2023-10-13T12:52:12;23.10;99.90
20481;DHT22;10399;50.754;3.366;2023-10-13T12:54:47;23.00;99.90
20481;DHT22;10399;50.754;3.366;2023-10-13T12:57:17;23.00;99.90
20481;DHT22;10399;50.754;3.366;2023-10-13T12:59:44;23.00;99.90
20481;DHT22;10399;50.754;3.366;2023-10-13T13:02:11;23.00;99.90
20481;DHT22;10399;50.754;3.366;2023-10-13T13:04:43;23.20;99.90
20481;DHT22;10399;50.754;3.366;2023-10-13T13:07:18;23.20;99.90
20481;DHT22;10399;50.754;3.366;2023-10-13T13:09:45;23.30;99.90
20481;DHT22;10399;50.754;3.366;2023-10-13T13:12:11;23.30;99.90
20481;DHT22;10399;50.754;3.366;2023-10-13T13:14:39;23.20;99.90
20481;DHT22;10399;50.754;3.366;2023-10-13T13:17:13;23.20;99.90
20481;DHT22;10399;50.754;3.366;2023-10-13T13:19:40;23.20;99.90
20481;DHT22;10399;50.754;3.366;2023-10-13T13:22:08;23.40;99.90
20481;DHT22;10399;50.754;3.366;2023-10-13T13:24:40;23.40;99.90
20481;DHT22;10399;50.754;3.366;2023-10-13T13:27:14;23.30;99.90
20481;DHT22;10399;50.754;3.366;2023-10-13T13:29:45;23.40;99.90
20481;DHT22;10399;50.754;3.366;2023-10-13T13:32:12;23.40;99.90
20481;DHT22;10399;50.754;3.366;2023-10-13T13:34:52;23.30;99.90
20481;DHT22;10399;50.754;3.366;2023-10-13T13:37:34;23.20;99.90
20481;DHT22;10399;50.754;3.366;2023-10-13T13:40:04;23.30;99.90
20481;DHT22;10399;50.754;3.366;2023-10-13T13:42:45;23.40;99.90
20481;DHT22;10399;50.754;3.366;2023-10-13T13:45:16;23.40;99.90
20481;DHT22;10399;50.754;3.366;2023-10-13T13:47:54;23.40;99.90
20481;DHT22;10399;50.754;3.366;2023-10-13T13:50:23;23.30;99.90
20481;DHT22;10399;50.754;3.366;2023-10-13T13:52:58;23.30;99.90
20481;DHT22;10399;50.754;3.366;2023-10-13T13:55:33;23.60;99.90
20481;DHT22;10399;50.754;3.366;2023-10-13T13:58:00;23.50;99.90
20481;DHT22;10399;50.754;3.366;2023-10-13T14:00:27;23.40;99.90
20481;DHT22;10399;50.754;3.366;2023-10-13T14:03:15;23.40;99.90
20481;DHT22;10399;50.754;3.366;2023-10-13T14:06:01;23.40;99.90
20481;DHT22;10399;50.754;3.366;2023-10-13T14:08:30;23.30;99.90
20481;DHT22;10399;50.754;3.366;2023-10-13T14:10:57;23.20;99.90
20481;DHT22;10399;50.754;3.366;2023-10-13T14:13:39;23.10;99.90
20481;DHT22;10399;50.754;3.366;2023-10-13T14:16:17;23.20;99.90
20481;DHT22;10399;50.754;3.366;2023-10-13T14:18:45;23.10;99.90
20481;DHT22;10399;50.754;3.366;2023-10-13T14:21:13;23.00;99.90
20481;DHT22;10399;50.754;3.366;2023-10-13T14:23:47;23.10;99.90
20481;DHT22;10399;50.754;3.366;2023-10-13T14:26:15;23.10;99.90
20481;DHT22;10399;50.754;3.366;2023-10-13T14:28:50;23.00;99.90
20481;DHT22;10399;50.754;3.366;2023-10-13T14:31:36;23.00;99.90
20481;DHT22;10399;50.754;3.366;2023-10-13T14:34:06;23.00;99.90
20481;DHT22;10399;50.754;3.366;2023-10-13T14:36:33;22.90;99.90
20481;DHT22;10399;50.754;3.366;2023-10-13T14:39:06;23.00;99.90
20481;DHT22;10399;50.754;3.366;2023-10-13T14:41:36;22.90;99.90
20481;DHT22;10399;50.754;3.366;2023-10-13T14:44:04;22.90;99.90
20481;DHT22;10399;50.754;3.366;2023-10-13T14:46:33;23.00;99.90
20481;DHT22;10399;50.754;3.366;2023-10-13T14:49:06;23.20;99.90
20481;DHT22;10399;50.754;3.366;2023-10-13T14:51:34;23.20;99.90
20481;DHT22;10399;50.754;3.366;2023-10-13T14:54:06;23.20;99.90
20481;DHT22;10399;50.754;3.366;2023-10-13T14:56:34;23.20;99.90
20481;DHT22;10399;50.754;3.366;2023-10-13T14:59:01;23.30;99.90
20481;DHT22;10399;50.754;3.366;2023-10-13T15:01:32;23.40;99.90
20481;DHT22;10399;50.754;3.366;2023-10-13T15:03:59;23.40;99.90
20481;DHT22;10399;50.754;3.366;2023-10-13T15:06:27;23.50;99.90
20481;DHT22;10399;50.754;3.366;2023-10-13T15:08:58;23.50;99.90
20481;DHT22;10399;50.754;3.366;2023-10-13T15:11:27;23.60;99.90
20481;DHT22;10399;50.754;3.366;2023-10-13T15:14:13;23.50;99.90
20481;DHT22;10399;50.754;3.366;2023-10-13T15:16:40;23.40;99.90
20481;DHT22;10399;50.754;3.366;2023-10-13T15:19:10;23.30;99.90
20481;DHT22;10399;50.754;3.366;2023-10-13T15:21:37;23.40;99.90
20481;DHT22;10399;50.754;3.366;2023-10-13T15:24:07;23.30;99.90
20481;DHT22;10399;50.754;3.366;2023-10-13T15:26:51;23.30;99.90
20481;DHT22;10399;50.754;3.366;2023-10-13T15:29:24;23.30;99.90
20481;DHT22;10399;50.754;3.366;2023-10-13T15:31:57;23.30;99.90
20481;DHT22;10399;50.754;3.366;2023-10-13T15:34:28;23.20;99.90
20481;DHT22;10399;50.754;3.366;2023-10-13T15:36:56;23.20;99.90
20481;DHT22;10399;50.754;3.366;2023-10-13T15:39:24;23.30;99.90
20481;DHT22;10399;50.754;3.366;2023-10-13T15:41:55;23.30;99.90
20481;DHT22;10399;50.754;3.366;2023-10-13T15:44:27;23.20;99.90
20481;DHT22;10399;50.754;3.366;2023-10-13T15:46:58;23.00;99.90
20481;DHT22;10399;50.754;3.366;2023-10-13T15:49:31;22.80;99.90
20481;DHT22;10399;50.754;3.366;2023-10-13T15:52:01;22.70;99.90
20481;DHT22;10399;50.754;3.366;2023-10-13T15:54:28;22.50;99.90
20481;DHT22;10399;50.754;3.366;2023-10-13T15:56:55;22.40;99.90
20481;DHT22;10399;50.754;3.366;2023-10-13T15:59:22;22.30;99.90
20481;DHT22;10399;50.754;3.366;2023-10-13T16:01:52;22.20;99.90
20481;DHT22;10399;50.754;3.366;2023-10-13T16:04:25;22.20;99.90
20481;DHT22;10399;50.754;3.366;2023-10-13T16:06:53;22.10;99.90
20481;DHT22;10399;50.754;3.366;2023-10-13T16:09:20;22.20;99.90
20481;DHT22;10399;50.754;3.366;2023-10-13T16:11:52;22.20;99.90
20481;DHT22;10399;50.754;3.366;2023-10-13T16:14:20;22.10;99.90
20481;DHT22;10399;50.754;3.366;2023-10-13T16:16:49;22.10;99.90
20481;DHT22;10399;50.754;3.366;2023-10-13T16:19:21;22.10;99.90
20481;DHT22;10399;50.754;3.366;2023-10-13T16:21:53;22.10;99.90
20481;DHT22;10399;50.754;3.366;2023-10-13T16:24:21;22.10;99.90
20481;DHT22;10399;50.754;3.366;2023-10-13T16:26:50;22.00;99.90
20481;DHT22;10399;50.754;3.366;2023-10-13T16:29:23;21.70;99.90